ETEB/QOB METAR and TAF weather

Enter ICAO airport designator
Station Type Date Time Source
ETEB METAR 2022/12/02 22:40 UTC NOAA

ETEB 022240Z AUTO 07007KT 9999 OVC004 M00/M01 A3005 RMK AO2 SLP216 $


Station Type Date Time Source
ETEB Decoded METAR 2022/12/02 22:40 UTC NOAA

Ansbach / Katterbach, Germany (ETEB) 49-19N 010-38E 476M
Dec 02, 2022 - 05:40 PM EST / 2022.12.02 2240 UTC
Wind: from the ENE (070 degrees) at 8 MPH (7 KT):0
Visibility: greater than 7 mile(s):0
Sky conditions: overcast
Temperature: 32 F (0 C)
Windchill: 24 F (-4 C):1
Dew Point: 30 F (-1 C)
Relative Humidity: 92%
Pressure (altimeter): 30.05 in. Hg (1017 hPa)
ob: ETEB 022240Z AUTO 07007KT 9999 OVC004 M00/M01 A3005 RMK AO2 SLP216
cycle: 22

Station Type Date Time Source
ETEB TAF 2022/12/02 20:48 UTC NOAA

TAF
AMD ETEB 022000Z 0220/0321 08006KT 5000 BR SCT003 OVC005 650153 QNH3002INS
BECMG 0306/0307 09006KT 5000 -DZ BR OVC005 650302 QNH2999INS
BECMG 0312/0313 09006KT 9999 NSW OVC010 620301 QNH2997INS TX02/0312Z TN00/0301Z LAST NO
AMDS AFT 0221 NEXT 0507

Example: see airport list